Time;durP1;ratioP1;P1;durP2;ratioP2;P2;SDS_P1;SDS_P2;PMS_P1;PMS_P2;Temp;Humidity;BMP_temperature;BMP_pressure;BME280_temperature;BME280_humidity;BME280_pressure;Samples;Min_cycle;Max_cycle;Signal;HPM_P1;HPM_P2
2022/06/18 00:00:56;;;;;;;6.70;4.43;;;;;;;;;;5066039;28;20049;-74
2022/06/18 00:03:27;;;;;;;8.23;4.70;;;;;;;;;;5066329;28;20070;-75
2022/06/18 00:05:58;;;;;;;5.03;4.53;;;;;;;;;;5066554;28;20059;-74
2022/06/18 00:08:30;;;;;;;6.30;4.88;;;;;;;;;;5067065;28;20048;-75
2022/06/18 00:13:50;;;;;;;6.95;5.60;;;;;;;;;;5066915;28;20488;-75
2022/06/18 00:16:22;;;;;;;7.75;5.28;;;;;;;;;;5066802;28;20052;-74
2022/06/18 00:18:52;;;;;;;;;;;;;;;;;;5066462;28;20403;-75
2022/06/18 00:21:25;;;;;;;6.43;5.03;;;;;;;;;;5066541;28;20276;-74
2022/06/18 00:23:55;;;;;;;6.80;6.10;;;;;;;;;;5066224;28;20052;-75
2022/06/18 00:26:25;;;;;;;8.50;6.10;;;;;;;;;;5066815;28;20055;-73
2022/06/18 00:28:54;;;;;;;7.95;5.53;;;;;;;;;;5065871;28;20044;-73
2022/06/18 00:31:24;;;;;;;7.25;5.65;;;;;;;;;;5064981;28;20052;-76
2022/06/18 00:33:54;;;;;;;7.90;5.38;;;;;;;;;;5066632;28;20491;-76
2022/06/18 00:36:24;;;;;;;5.60;5.00;;;;;;;;;;5066959;28;20048;-76
2022/06/18 00:38:55;;;;;;;6.43;5.00;;;;;;;;;;5067235;28;20056;-74
2022/06/18 00:41:26;;;;;;;8.88;6.38;;;;;;;;;;5066422;28;20055;-74
2022/06/18 00:44:01;;;;;;;;;;;;;;;;;;5065560;28;20053;-74
2022/06/18 00:46:52;;;;;;;6.25;5.32;;;;;;;;;;5066388;28;19921;-75
2022/06/18 00:49:54;;;;;;;7.18;5.97;;;;;;;;;;5066443;28;20123;-72
2022/06/18 00:52:29;;;;;;;10.90;6.05;;;;;;;;;;5065989;28;20064;-74
2022/06/18 00:55:07;;;;;;;9.85;6.28;;;;;;;;;;5066619;28;20040;-74
2022/06/18 00:57:46;;;;;;;7.45;6.13;;;;;;;;;;5063683;28;20056;-74
2022/06/18 01:00:38;;;;;;;9.43;6.38;;;;;;;;;;5066252;28;20044;-74
2022/06/18 01:03:32;;;;;;;9.43;6.55;;;;;;;;;;5064446;28;20060;-74
2022/06/18 01:06:32;;;;;;;9.48;6.80;;;;;;;;;;5064682;28;20068;-73
2022/06/18 01:09:06;;;;;;;8.77;6.22;;;;;;;;;;5057662;28;20040;-76
2022/06/18 01:11:40;;;;;;;7.20;6.22;;;;;;;;;;5066179;28;20044;-75
2022/06/18 01:14:15;;;;;;;11.52;6.55;;;;;;;;;;5063844;28;20048;-73
2022/06/18 01:16:46;;;;;;;10.93;6.72;;;;;;;;;;5064727;28;20071;-75
2022/06/18 01:19:32;;;;;;;8.38;6.68;;;;;;;;;;5064605;28;20537;-75
2022/06/18 01:22:26;;;;;;;11.27;7.85;;;;;;;;;;5063750;28;20080;-73
2022/06/18 01:25:00;;;;;;;14.82;6.72;;;;;;;;;;5062885;28;20059;-73
2022/06/18 01:27:30;;;;;;;7.38;6.35;;;;;;;;;;5065941;28;20044;-76
2022/06/18 01:30:03;;;;;;;7.88;6.68;;;;;;;;;;5064393;28;20064;-74
2022/06/18 01:32:35;;;;;;;7.43;6.70;;;;;;;;;;5067830;28;20504;-73
2022/06/18 01:35:06;;;;;;;9.95;7.15;;;;;;;;;;5076974;28;20648;-71
2022/06/18 01:37:51;;;;;;;8.88;7.00;;;;;;;;;;5064777;28;20059;-73
2022/06/18 01:40:57;;;;;;;11.38;7.43;;;;;;;;;;5064717;28;20901;-73
2022/06/18 01:43:28;;;;;;;10.95;6.72;;;;;;;;;;5067633;28;20053;-76
2022/06/18 01:46:01;;;;;;;10.88;7.15;;;;;;;;;;5067772;28;20048;-72
2022/06/18 01:48:39;;;;;;;12.00;7.68;;;;;;;;;;5066644;28;20057;-75
2022/06/18 01:51:23;;;;;;;8.27;6.50;;;;;;;;;;5066584;28;20079;-72
2022/06/18 01:54:00;;;;;;;16.30;10.20;;;;;;;;;;5066329;28;20522;-73
2022/06/18 01:56:35;;;;;;;8.48;6.82;;;;;;;;;;5067778;28;20044;-72
2022/06/18 01:59:20;;;;;;;8.98;6.90;;;;;;;;;;5067003;28;20056;-74
2022/06/18 02:01:51;;;;;;;8.07;6.53;;;;;;;;;;5067605;28;20699;-74
2022/06/18 02:04:23;;;;;;;;;;;;;;;;;;5067226;28;20052;-72
2022/06/18 02:06:54;;;;;;;9.60;7.20;;;;;;;;;;5067235;28;20023;-73
2022/06/18 02:09:39;;;;;;;10.18;7.10;;;;;;;;;;5068835;28;20053;-72
2022/06/18 02:12:17;;;;;;;11.45;6.35;;;;;;;;;;5067120;28;20057;-73
2022/06/18 02:14:55;;;;;;;14.95;6.85;;;;;;;;;;5067574;28;20566;-73
2022/06/18 02:17:27;;;;;;;13.07;7.60;;;;;;;;;;5067266;28;20055;-74
2022/06/18 02:20:08;;;;;;;10.35;7.18;;;;;;;;;;5069476;28;20675;-74
2022/06/18 02:22:43;;;;;;;9.93;7.28;;;;;;;;;;5067901;28;20059;-74
2022/06/18 02:25:15;;;;;;;10.35;7.63;;;;;;;;;;5051259;28;20067;-73
2022/06/18 02:27:46;;;;;;;13.65;8.23;;;;;;;;;;5066972;28;20068;-73
2022/06/18 02:30:20;;;;;;;8.65;7.53;;;;;;;;;;5067563;28;20491;-71
2022/06/18 02:32:59;;;;;;;11.50;7.80;;;;;;;;;;5066824;28;20415;-72
2022/06/18 02:35:34;;;;;;;14.48;7.68;;;;;;;;;;5066571;28;21012;-73
2022/06/18 02:38:17;;;;;;;11.50;7.20;;;;;;;;;;5069017;28;21172;-72
2022/06/18 02:40:47;;;;;;;8.73;6.93;;;;;;;;;;5068597;28;20041;-74
2022/06/18 02:43:20;;;;;;;9.73;7.75;;;;;;;;;;5068061;28;20047;-73
2022/06/18 02:45:55;;;;;;;12.38;7.50;;;;;;;;;;5067001;28;20063;-75
2022/06/18 02:48:29;;;;;;;12.93;8.00;;;;;;;;;;5067032;28;20044;-72
2022/06/18 02:51:00;;;;;;;13.90;7.43;;;;;;;;;;5066875;28;20048;-72
2022/06/18 02:53:32;;;;;;;12.25;7.72;;;;;;;;;;5065901;28;20431;-72
2022/06/18 02:56:07;;;;;;;9.57;6.82;;;;;;;;;;5066311;28;20060;-74
2022/06/18 02:58:42;;;;;;;10.15;7.75;;;;;;;;;;5066202;28;20535;-72
2022/06/18 03:01:19;;;;;;;10.27;7.15;;;;;;;;;;5068068;28;20048;-73
2022/06/18 03:03:56;;;;;;;20.15;7.13;;;;;;;;;;5050457;28;20064;-72
2022/06/18 03:06:31;;;;;;;12.60;6.57;;;;;;;;;;5067957;28;20422;-73
2022/06/18 03:09:01;;;;;;;11.20;7.32;;;;;;;;;;5068077;28;20411;-73
2022/06/18 03:14:19;;;;;;;11.27;7.43;;;;;;;;;;5067050;28;20051;-72
2022/06/18 03:16:49;;;;;;;12.02;7.10;;;;;;;;;;5066158;28;20048;-74
2022/06/18 03:19:44;;;;;;;14.13;8.32;;;;;;;;;;5065984;28;20060;-73
2022/06/18 03:22:18;;;;;;;10.75;6.97;;;;;;;;;;5065797;28;20143;-74
2022/06/18 03:24:51;;;;;;;12.88;7.38;;;;;;;;;;5065220;28;20416;-74
2022/06/18 03:27:21;;;;;;;12.23;7.90;;;;;;;;;;5065959;28;20058;-72
2022/06/18 03:29:57;;;;;;;10.75;7.57;;;;;;;;;;5066318;28;20488;-73
2022/06/18 03:32:27;;;;;;;15.68;8.02;;;;;;;;;;5066015;28;20603;-73
2022/06/18 03:34:57;;;;;;;11.98;7.88;;;;;;;;;;5066566;28;20496;-72
2022/06/18 03:37:27;;;;;;;14.90;8.05;;;;;;;;;;5065743;28;20049;-73
2022/06/18 03:39:57;;;;;;;9.93;7.70;;;;;;;;;;5065521;28;20053;-73
2022/06/18 03:42:27;;;;;;;13.88;8.30;;;;;;;;;;5049654;28;20044;-72
2022/06/18 03:44:58;;;;;;;18.52;10.98;;;;;;;;;;5065681;28;20741;-73
2022/06/18 03:47:29;;;;;;;21.67;13.90;;;;;;;;;;5065563;28;20053;-73
2022/06/18 03:49:59;;;;;;;19.50;12.10;;;;;;;;;;5065371;28;20045;-73
2022/06/18 03:52:30;;;;;;;32.58;21.27;;;;;;;;;;5065695;28;20036;-73
2022/06/18 03:55:00;;;;;;;19.92;11.55;;;;;;;;;;5065783;28;20536;-74
2022/06/18 03:57:30;;;;;;;16.63;10.60;;;;;;;;;;5065657;28;20056;-73
2022/06/18 04:00:00;;;;;;;19.10;12.60;;;;;;;;;;5065774;28;20423;-73
2022/06/18 04:02:32;;;;;;;13.27;9.35;;;;;;;;;;5064995;28;20052;-73
2022/06/18 04:05:02;;;;;;;11.77;9.02;;;;;;;;;;5065433;28;20040;-72
2022/06/18 04:07:33;;;;;;;13.10;9.10;;;;;;;;;;5066294;28;20057;-73
2022/06/18 04:10:17;;;;;;;14.95;9.35;;;;;;;;;;5069144;28;20044;-73
2022/06/18 04:12:49;;;;;;;13.02;8.32;;;;;;;;;;5064809;28;20060;-73
2022/06/18 04:15:45;;;;;;;24.38;9.77;;;;;;;;;;5066157;28;20052;-73
2022/06/18 04:18:29;;;;;;;17.27;8.70;;;;;;;;;;5072276;28;20056;-72
2022/06/18 04:21:02;;;;;;;17.45;9.50;;;;;;;;;;5070238;28;20543;-73
2022/06/18 04:23:36;;;;;;;13.57;8.68;;;;;;;;;;5064875;28;20602;-73
2022/06/18 04:26:06;;;;;;;13.88;9.07;;;;;;;;;;5064775;28;20056;-73
2022/06/18 04:28:40;;;;;;;13.98;8.60;;;;;;;;;;5064938;28;20057;-73
2022/06/18 04:31:15;;;;;;;14.63;8.40;;;;;;;;;;5065779;28;20051;-73
2022/06/18 04:33:46;;;;;;;18.55;8.93;;;;;;;;;;5065570;28;20056;-72
2022/06/18 04:36:37;;;;;;;13.90;8.38;;;;;;;;;;5065088;28;20051;-73
2022/06/18 04:39:14;;;;;;;14.50;8.65;;;;;;;;;;5065008;28;20052;-73
2022/06/18 04:42:11;;;;;;;12.77;8.90;;;;;;;;;;5063475;28;20052;-73
2022/06/18 04:44:43;;;;;;;20.02;9.57;;;;;;;;;;5064346;28;20052;-73
2022/06/18 04:47:18;;;;;;;15.30;9.80;;;;;;;;;;5064567;28;20427;-72
2022/06/18 04:49:50;;;;;;;16.45;9.65;;;;;;;;;;5066755;28;20049;-73
2022/06/18 04:52:21;;;;;;;12.02;8.75;;;;;;;;;;5065206;28;20057;-72
2022/06/18 04:54:57;;;;;;;14.77;8.82;;;;;;;;;;5065269;28;20049;-73
2022/06/18 04:57:30;;;;;;;14.35;9.43;;;;;;;;;;5064904;28;20045;-72
2022/06/18 05:00:00;;;;;;;18.17;9.30;;;;;;;;;;5065085;28;20049;-73
2022/06/18 05:02:36;;;;;;;12.43;8.32;;;;;;;;;;5064204;28;20064;-73
2022/06/18 05:05:25;;;;;;;15.27;8.35;;;;;;;;;;5064667;28;20060;-72
2022/06/18 05:08:15;;;;;;;18.67;8.20;;;;;;;;;;5065858;28;20044;-72
2022/06/18 05:11:06;;;;;;;13.48;8.85;;;;;;;;;;5066015;28;20053;-73
2022/06/18 05:13:45;;;;;;;16.77;9.20;;;;;;;;;;5064410;28;20060;-71
2022/06/18 05:16:33;;;;;;;13.73;8.80;;;;;;;;;;5067679;28;20516;-73
2022/06/18 05:19:05;;;;;;;14.40;9.20;;;;;;;;;;5068272;28;20045;-73
2022/06/18 05:21:35;;;;;;;15.27;9.32;;;;;;;;;;5068055;28;20059;-73
2022/06/18 05:24:06;;;;;;;15.30;9.25;;;;;;;;;;5068469;28;20539;-73
2022/06/18 05:26:35;;;;;;;13.48;8.80;;;;;;;;;;5068282;28;20063;-72
2022/06/18 05:29:05;;;;;;;12.07;8.77;;;;;;;;;;5068304;28;20045;-72
2022/06/18 05:31:35;;;;;;;16.35;10.00;;;;;;;;;;5069955;28;20045;-74
2022/06/18 05:34:05;;;;;;;10.25;7.65;;;;;;;;;;5067942;28;20063;-73
2022/06/18 05:36:36;;;;;;;14.60;8.98;;;;;;;;;;5068037;28;20067;-73
2022/06/18 05:39:10;;;;;;;24.63;8.75;;;;;;;;;;5068301;28;20067;-72
2022/06/18 05:41:40;;;;;;;13.57;8.02;;;;;;;;;;5067930;28;20052;-73
2022/06/18 05:44:10;;;;;;;16.02;9.45;;;;;;;;;;5068450;28;20438;-74
2022/06/18 05:46:41;;;;;;;12.93;7.93;;;;;;;;;;5067996;28;20056;-73
2022/06/18 05:49:11;;;;;;;12.32;8.75;;;;;;;;;;5068118;28;20438;-74
2022/06/18 05:51:41;;;;;;;10.55;8.20;;;;;;;;;;5068331;28;20056;-74
2022/06/18 05:54:11;;;;;;;15.32;8.60;;;;;;;;;;5067756;28;20063;-73
2022/06/18 05:57:01;;;;;;;11.45;8.05;;;;;;;;;;5068007;28;20059;-72
2022/06/18 05:59:49;;;;;;;14.02;8.15;;;;;;;;;;5067498;28;20602;-73
2022/06/18 06:02:20;;;;;;;13.63;8.93;;;;;;;;;;5067798;28;20059;-73
2022/06/18 06:04:51;;;;;;;12.48;7.90;;;;;;;;;;5067154;28;20071;-73
2022/06/18 06:07:25;;;;;;;16.10;8.02;;;;;;;;;;5067662;28;20503;-72
2022/06/18 06:12:43;;;;;;;13.63;7.93;;;;;;;;;;5067665;28;20060;-74
2022/06/18 06:15:13;;;;;;;12.85;8.10;;;;;;;;;;5067030;28;20044;-73
2022/06/18 06:17:44;;;;;;;11.48;7.57;;;;;;;;;;5069695;28;20048;-73
2022/06/18 06:20:38;;;;;;;11.48;7.28;;;;;;;;;;5069420;28;20403;-73
2022/06/18 06:23:09;;;;;;;10.23;7.40;;;;;;;;;;5068220;28;20075;-73
2022/06/18 06:25:41;;;;;;;9.55;7.45;;;;;;;;;;5068645;28;20060;-74
2022/06/18 06:28:17;;;;;;;11.32;7.57;;;;;;;;;;5067647;28;20858;-73
2022/06/18 06:30:49;;;;;;;12.85;7.57;;;;;;;;;;5067863;28;20411;-72
2022/06/18 06:33:20;;;;;;;14.82;8.00;;;;;;;;;;5068390;28;20407;-72
2022/06/18 06:35:51;;;;;;;14.43;7.88;;;;;;;;;;5069294;28;20041;-72
2022/06/18 06:38:21;;;;;;;17.02;7.88;;;;;;;;;;5068757;28;20098;-72
2022/06/18 06:40:51;;;;;;;12.18;7.60;;;;;;;;;;5067518;28;20419;-72
2022/06/18 06:43:24;;;;;;;11.32;7.03;;;;;;;;;;5068348;28;20044;-72
2022/06/18 06:45:53;;;;;;;8.50;6.60;;;;;;;;;;5068380;28;20056;-72
2022/06/18 06:48:23;;;;;;;8.23;6.53;;;;;;;;;;5067506;28;20052;-72
2022/06/18 06:50:53;;;;;;;6.68;5.80;;;;;;;;;;5068454;28;20052;-72
2022/06/18 06:53:23;;;;;;;7.93;5.88;;;;;;;;;;5067653;28;20079;-71
2022/06/18 06:58:41;;;;;;;10.55;6.03;;;;;;;;;;5081014;28;20040;-71
2022/06/18 07:01:12;;;;;;;10.10;6.05;;;;;;;;;;5072612;28;20060;-72
2022/06/18 07:03:42;;;;;;;10.43;6.22;;;;;;;;;;5068091;28;20060;-72
2022/06/18 07:06:13;;;;;;;8.32;6.07;;;;;;;;;;5066705;28;20044;-71
2022/06/18 07:08:44;;;;;;;9.05;6.00;;;;;;;;;;5068270;28;20052;-72
2022/06/18 07:11:15;;;;;;;8.32;5.65;;;;;;;;;;5067424;28;20059;-72
2022/06/18 07:13:46;;;;;;;9.65;5.38;;;;;;;;;;5066104;28;20530;-72
2022/06/18 07:16:17;;;;;;;12.77;5.63;;;;;;;;;;5067569;28;20408;-73
2022/06/18 07:18:49;;;;;;;8.15;5.57;;;;;;;;;;5067595;28;20314;-71
2022/06/18 07:21:21;;;;;;;8.40;5.53;;;;;;;;;;5067269;28;20048;-73
2022/06/18 07:23:52;;;;;;;13.02;5.60;;;;;;;;;;5067469;28;20057;-72
2022/06/18 07:26:22;;;;;;;10.55;5.75;;;;;;;;;;5066338;28;20075;-70
2022/06/18 07:28:53;;;;;;;9.00;5.00;;;;;;;;;;5068363;28;20471;-72
2022/06/18 07:31:33;;;;;;;10.45;5.55;;;;;;;;;;5067290;28;20428;-73
2022/06/18 07:34:07;;;;;;;9.45;6.15;;;;;;;;;;5067471;28;20052;-73
2022/06/18 07:36:37;;;;;;;7.35;5.13;;;;;;;;;;5067650;28;20040;-73
2022/06/18 07:39:06;;;;;;;8.80;4.93;;;;;;;;;;5067246;28;20496;-73
2022/06/18 07:41:44;;;;;;;6.28;5.18;;;;;;;;;;5067330;28;20056;-74
2022/06/18 07:44:14;;;;;;;9.02;5.15;;;;;;;;;;5065928;28;20052;-73
2022/06/18 07:46:45;;;;;;;8.23;5.03;;;;;;;;;;5067176;28;20048;-73
2022/06/18 07:49:17;;;;;;;8.23;4.85;;;;;;;;;;5067221;28;20041;-73
2022/06/18 07:51:47;;;;;;;6.00;4.90;;;;;;;;;;5067753;28;20048;-73
2022/06/18 07:54:18;;;;;;;8.45;5.18;;;;;;;;;;5067189;28;20522;-73
2022/06/18 07:56:49;;;;;;;11.05;5.22;;;;;;;;;;5066818;28;20546;-73
2022/06/18 07:59:20;;;;;;;8.40;5.13;;;;;;;;;;5067671;28;20037;-73
2022/06/18 08:01:50;;;;;;;6.78;5.35;;;;;;;;;;5064799;28;20056;-73
2022/06/18 08:04:21;;;;;;;6.75;4.55;;;;;;;;;;5066774;28;20412;-76
2022/06/18 08:06:52;;;;;;;9.50;5.60;;;;;;;;;;5066784;28;20044;-74
2022/06/18 08:09:22;;;;;;;;;;;;;;;;;;5067302;28;20274;-73
2022/06/18 08:11:52;;;;;;;8.07;4.35;;;;;;;;;;5067398;28;19930;-73
2022/06/18 08:14:23;;;;;;;6.80;4.68;;;;;;;;;;5067020;28;20048;-72
2022/06/18 08:16:53;;;;;;;10.17;4.97;;;;;;;;;;5066925;28;20045;-73
2022/06/18 08:19:23;;;;;;;9.75;4.53;;;;;;;;;;5066984;28;20283;-73
2022/06/18 08:21:53;;;;;;;12.18;4.88;;;;;;;;;;5065923;28;20087;-73
2022/06/18 08:24:24;;;;;;;12.80;5.43;;;;;;;;;;5066970;28;20045;-73
2022/06/18 08:26:54;;;;;;;8.13;4.30;;;;;;;;;;5065147;28;20079;-73
2022/06/18 08:29:24;;;;;;;13.32;4.13;;;;;;;;;;5066579;28;20047;-73
2022/06/18 08:31:54;;;;;;;6.18;4.38;;;;;;;;;;5066354;28;20063;-73
2022/06/18 08:34:24;;;;;;;6.25;4.40;;;;;;;;;;5066531;28;20415;-73
2022/06/18 08:37:03;;;;;;;5.70;4.28;;;;;;;;;;5066429;28;20055;-73
2022/06/18 08:39:34;;;;;;;8.45;5.63;;;;;;;;;;5066419;28;20484;-73
2022/06/18 08:42:04;;;;;;;6.05;3.70;;;;;;;;;;5066419;28;20044;-73
2022/06/18 08:45:01;;;;;;;6.53;3.83;;;;;;;;;;5066949;28;20049;-73
2022/06/18 08:47:37;;;;;;;5.53;4.07;;;;;;;;;;5066960;28;20423;-73
2022/06/18 08:50:13;;;;;;;6.88;4.25;;;;;;;;;;5067104;28;20044;-73
2022/06/18 08:53:19;;;;;;;18.77;4.80;;;;;;;;;;5071077;28;20040;-73
2022/06/18 08:55:53;;;;;;;7.80;3.72;;;;;;;;;;5070280;28;20047;-73
2022/06/18 08:58:32;;;;;;;11.77;3.75;;;;;;;;;;5070422;28;20051;-73
2022/06/18 09:01:18;;;;;;;4.03;3.28;;;;;;;;;;5070274;28;20518;-72
2022/06/18 09:04:04;;;;;;;4.35;3.50;;;;;;;;;;5070392;28;20602;-73
2022/06/18 09:06:49;;;;;;;3.92;3.33;;;;;;;;;;5070688;28;20045;-73
2022/06/18 09:09:25;;;;;;;6.53;3.58;;;;;;;;;;5070486;28;20060;-73
2022/06/18 09:12:25;;;;;;;6.35;3.42;;;;;;;;;;5071019;28;20044;-73
2022/06/18 09:15:05;;;;;;;6.90;3.53;;;;;;;;;;5070022;28;20049;-73
2022/06/18 09:17:51;;;;;;;3.58;3.28;;;;;;;;;;5070079;28;20044;-73
2022/06/18 09:20:23;;;;;;;7.95;3.20;;;;;;;;;;5068892;28;20040;-73
2022/06/18 09:22:59;;;;;;;4.03;3.15;;;;;;;;;;5069873;28;20846;-72
2022/06/18 09:25:34;;;;;;;5.13;3.15;;;;;;;;;;5069826;28;20048;-73
2022/06/18 09:28:15;;;;;;;5.07;3.67;;;;;;;;;;5069865;28;20040;-73
2022/06/18 09:31:12;;;;;;;5.30;3.50;;;;;;;;;;5067827;28;20075;-74
2022/06/18 09:33:52;;;;;;;3.35;3.05;;;;;;;;;;5062050;28;20065;-73
2022/06/18 09:36:31;;;;;;;4.75;3.05;;;;;;;;;;5077725;28;20407;-72
2022/06/18 09:39:08;;;;;;;8.00;3.10;;;;;;;;;;5079758;28;20048;-72
2022/06/18 09:41:48;;;;;;;8.48;3.40;;;;;;;;;;5069442;28;20045;-73
2022/06/18 09:44:37;;;;;;;3.95;2.90;;;;;;;;;;5069776;28;20480;-72
2022/06/18 09:47:12;;;;;;;4.97;3.35;;;;;;;;;;5069758;28;20052;-73
2022/06/18 09:49:46;;;;;;;5.18;2.97;;;;;;;;;;5069150;28;20044;-72
2022/06/18 09:52:36;;;;;;;8.07;3.38;;;;;;;;;;5067637;28;20055;-72
2022/06/18 09:55:49;;;;;;;4.63;3.35;;;;;;;;;;5068848;28;20051;-72
2022/06/18 09:58:37;;;;;;;8.55;4.18;;;;;;;;;;5069213;28;20063;-72
2022/06/18 10:01:13;;;;;;;5.97;3.55;;;;;;;;;;5068167;28;20055;-72
2022/06/18 10:06:53;;;;;;;5.93;4.22;;;;;;;;;;5069530;28;20052;-72
2022/06/18 10:10:13;;;;;;;8.68;3.58;;;;;;;;;;5067920;28;20625;-72
2022/06/18 10:12:53;;;;;;;6.65;3.90;;;;;;;;;;5059625;28;20068;-71
2022/06/18 10:15:25;;;;;;;4.75;3.53;;;;;;;;;;5068659;28;20052;-71
2022/06/18 10:18:04;;;;;;;5.25;3.35;;;;;;;;;;5069074;28;20036;-72
2022/06/18 10:20:55;;;;;;;7.68;3.75;;;;;;;;;;5069312;28;20052;-72
2022/06/18 10:23:38;;;;;;;5.00;3.60;;;;;;;;;;5068527;28;20057;-70
2022/06/18 10:26:24;;;;;;;8.07;3.35;;;;;;;;;;5068756;28;20044;-72
2022/06/18 10:29:35;;;;;;;10.48;3.75;;;;;;;;;;5069241;28;20399;-71
2022/06/18 10:32:13;;;;;;;3.75;3.08;;;;;;;;;;5068887;28;20048;-72
2022/06/18 10:35:12;;;;;;;7.80;3.70;;;;;;;;;;5069100;28;20482;-72
2022/06/18 10:38:09;;;;;;;5.85;3.83;;;;;;;;;;5068614;28;20048;-71
2022/06/18 10:40:43;;;;;;;7.00;4.22;;;;;;;;;;5068849;28;20048;-72
2022/06/18 10:43:31;;;;;;;8.02;4.35;;;;;;;;;;5068725;28;20048;-71
2022/06/18 10:46:12;;;;;;;6.53;4.05;;;;;;;;;;5068444;28;20041;-72
2022/06/18 10:48:55;;;;;;;6.65;4.00;;;;;;;;;;5068540;28;20047;-72
2022/06/18 10:51:28;;;;;;;10.13;3.95;;;;;;;;;;5068215;28;20423;-75
2022/06/18 10:54:01;;;;;;;4.95;4.03;;;;;;;;;;5068618;28;20052;-72
2022/06/18 10:56:44;;;;;;;11.00;6.03;;;;;;;;;;5067015;28;20067;-71
2022/06/18 10:59:14;;;;;;;9.13;5.25;;;;;;;;;;5068297;28;20051;-73
2022/06/18 11:01:46;;;;;;;7.05;4.97;;;;;;;;;;5067906;28;20052;-72
2022/06/18 11:04:26;;;;;;;7.07;4.13;;;;;;;;;;5067611;28;20056;-72
2022/06/18 11:07:02;;;;;;;8.10;4.97;;;;;;;;;;5067938;28;20044;-72
2022/06/18 11:09:45;;;;;;;8.85;4.05;;;;;;;;;;5068172;28;20055;-73
2022/06/18 11:12:38;;;;;;;14.80;4.38;;;;;;;;;;5067727;28;20048;-72
2022/06/18 11:15:30;;;;;;;7.95;4.03;;;;;;;;;;5068105;28;20047;-72
2022/06/18 11:18:15;;;;;;;6.05;3.80;;;;;;;;;;5068023;28;20032;-72
2022/06/18 11:21:34;;;;;;;6.53;3.70;;;;;;;;;;5068508;28;20511;-73
2022/06/18 11:24:16;;;;;;;4.57;3.80;;;;;;;;;;5047589;28;20059;-72
2022/06/18 11:26:49;;;;;;;6.20;3.53;;;;;;;;;;5067375;28;20051;-71
2022/06/18 11:29:34;;;;;;;5.93;3.72;;;;;;;;;;5068146;28;20052;-76
2022/06/18 11:32:11;;;;;;;8.63;4.05;;;;;;;;;;5067686;28;20051;-73
2022/06/18 11:35:12;;;;;;;14.38;3.88;;;;;;;;;;5067434;28;20075;-72
2022/06/18 11:37:43;;;;;;;14.00;3.58;;;;;;;;;;5057431;28;20057;-72
2022/06/18 11:40:12;;;;;;;6.22;3.20;;;;;;;;;;5065501;28;20059;-72
2022/06/18 11:42:56;;;;;;;12.60;3.92;;;;;;;;;;5067548;28;20069;-72
2022/06/18 11:45:41;;;;;;;8.35;3.50;;;;;;;;;;5066584;28;20040;-72
2022/06/18 11:48:40;;;;;;;8.75;3.47;;;;;;;;;;5067315;28;20616;-72
2022/06/18 11:51:22;;;;;;;6.65;3.75;;;;;;;;;;5067439;28;20056;-72
2022/06/18 11:53:59;;;;;;;11.55;3.53;;;;;;;;;;5067265;28;20631;-73
2022/06/18 11:56:50;;;;;;;12.27;5.18;;;;;;;;;;5066917;28;20052;-72
2022/06/18 11:59:53;;;;;;;7.97;3.90;;;;;;;;;;5053745;28;20518;-77
2022/06/18 12:02:35;;;;;;;5.15;2.67;;;;;;;;;;5067186;28;20040;-75
2022/06/18 12:05:13;;;;;;;11.65;3.00;;;;;;;;;;5066953;28;20052;-72
2022/06/18 12:07:50;;;;;;;9.98;3.17;;;;;;;;;;5066721;28;20408;-72
2022/06/18 12:10:26;;;;;;;3.70;2.50;;;;;;;;;;5072243;28;20047;-71
2022/06/18 12:13:08;;;;;;;4.50;2.50;;;;;;;;;;5077538;28;20063;-72
2022/06/18 12:15:50;;;;;;;8.55;2.53;;;;;;;;;;5066830;28;20041;-73
2022/06/18 12:18:50;;;;;;;7.93;2.58;;;;;;;;;;5066992;28;20055;-73
2022/06/18 12:21:51;;;;;;;4.57;2.28;;;;;;;;;;5067213;28;20059;-72
2022/06/18 12:24:30;;;;;;;3.65;2.47;;;;;;;;;;5066254;28;20055;-72
2022/06/18 12:27:11;;;;;;;6.40;2.60;;;;;;;;;;5066720;28;20052;-77
2022/06/18 12:29:47;;;;;;;;;;;;;;;;;;5067243;28;20051;-76
2022/06/18 12:32:34;;;;;;;6.18;2.38;;;;;;;;;;5065366;28;19932;-72
2022/06/18 12:35:30;;;;;;;5.95;2.17;;;;;;;;;;5065625;28;20553;-74
2022/06/18 12:38:21;;;;;;;7.10;2.20;;;;;;;;;;5066947;28;20055;-73
2022/06/18 12:40:57;;;;;;;4.05;1.83;;;;;;;;;;5066724;28;20048;-72
2022/06/18 12:43:57;;;;;;;7.57;1.90;;;;;;;;;;5066400;28;20048;-73
2022/06/18 12:46:36;;;;;;;3.65;2.30;;;;;;;;;;5059336;28;20060;-73
2022/06/18 12:49:15;;;;;;;6.35;2.13;;;;;;;;;;5064872;28;20075;-73
2022/06/18 12:52:22;;;;;;;2.58;1.70;;;;;;;;;;5067267;28;20045;-73
2022/06/18 12:55:29;;;;;;;3.25;1.67;;;;;;;;;;5035502;28;20057;-74
2022/06/18 12:58:02;;;;;;;4.65;1.80;;;;;;;;;;5066751;28;20045;-76
2022/06/18 13:00:41;;;;;;;7.43;1.63;;;;;;;;;;5066257;28;20673;-73
2022/06/18 13:03:48;;;;;;;8.10;1.40;;;;;;;;;;5066067;28;20404;-75
2022/06/18 13:06:27;;;;;;;6.05;2.28;;;;;;;;;;5066758;28;20500;-73
2022/06/18 13:09:43;;;;;;;4.93;1.45;;;;;;;;;;5066524;28;20040;-73
2022/06/18 13:12:37;;;;;;;7.63;1.73;;;;;;;;;;5004176;28;20061;-73
2022/06/18 13:15:18;;;;;;;3.28;1.58;;;;;;;;;;5002863;28;20058;-72
2022/06/18 13:17:55;;;;;;;11.27;1.50;;;;;;;;;;5055003;28;20056;-71
2022/06/18 13:20:35;;;;;;;3.58;1.20;;;;;;;;;;5065981;28;20056;-72
2022/06/18 13:29:31;;;;;;;16.30;3.10;;;;;;;;;;5065537;28;20041;-70
2022/06/18 13:32:09;;;;;;;6.07;1.50;;;;;;;;;;5065709;28;20059;-71
2022/06/18 13:35:18;;;;;;;10.52;1.80;;;;;;;;;;5065661;28;20039;-73
2022/06/18 13:37:59;;;;;;;4.63;1.58;;;;;;;;;;5066858;28;20064;-72
2022/06/18 13:40:34;;;;;;;;;;;;;;;;;;5070075;28;20391;-73
2022/06/18 13:43:18;;;;;;;6.38;1.45;;;;;;;;;;5069184;28;19924;-73
2022/06/18 13:46:02;;;;;;;11.38;2.05;;;;;;;;;;5069532;28;20056;-72
2022/06/18 13:48:56;;;;;;;9.90;1.38;;;;;;;;;;5068326;28;20052;-73
2022/06/18 13:51:33;;;;;;;5.45;1.92;;;;;;;;;;5062390;28;20396;-73
2022/06/18 13:54:05;;;;;;;5.10;1.70;;;;;;;;;;5069188;28;20052;-74
2022/06/18 13:56:37;;;;;;;3.15;1.60;;;;;;;;;;5069437;28;20048;-78
2022/06/18 13:59:17;;;;;;;5.63;1.42;;;;;;;;;;5068244;28;20052;-72
2022/06/18 14:01:54;;;;;;;7.90;2.03;;;;;;;;;;5069029;28;20524;-73
2022/06/18 14:04:34;;;;;;;7.10;1.50;;;;;;;;;;5069405;28;20530;-73
2022/06/18 14:07:08;;;;;;;13.90;2.30;;;;;;;;;;5068749;28;20050;-72
2022/06/18 14:09:49;;;;;;;5.93;1.15;;;;;;;;;;5067670;28;20089;-72
2022/06/18 14:12:32;;;;;;;3.80;1.23;;;;;;;;;;5068923;28;20048;-73
2022/06/18 14:15:13;;;;;;;12.80;1.60;;;;;;;;;;5069010;28;20519;-75
2022/06/18 14:17:48;;;;;;;6.63;1.77;;;;;;;;;;5068982;28;20047;-73
2022/06/18 14:20:31;;;;;;;3.90;1.58;;;;;;;;;;5068791;28;20056;-72
2022/06/18 14:23:07;;;;;;;5.97;1.50;;;;;;;;;;5068703;28;20056;-75
2022/06/18 14:25:58;;;;;;;14.40;4.70;;;;;;;;;;5069453;28;20051;-73
2022/06/18 14:28:37;;;;;;;5.57;1.65;;;;;;;;;;5069149;28;20051;-73
2022/06/18 14:31:14;;;;;;;9.07;2.20;;;;;;;;;;5068650;28;20048;-73
2022/06/18 14:34:02;;;;;;;7.53;1.70;;;;;;;;;;5067420;28;20134;-72
2022/06/18 14:36:50;;;;;;;7.47;1.45;;;;;;;;;;5068923;28;20048;-73
2022/06/18 14:39:38;;;;;;;8.48;1.65;;;;;;;;;;5068583;28;20048;-72
2022/06/18 14:42:40;;;;;;;8.43;1.58;;;;;;;;;;5068758;28;20040;-73
2022/06/18 14:45:33;;;;;;;17.60;2.70;;;;;;;;;;5058361;28;20111;-74
2022/06/18 14:48:12;;;;;;;10.82;1.95;;;;;;;;;;5071891;28;20048;-72
2022/06/18 14:50:54;;;;;;;6.97;1.35;;;;;;;;;;5069929;28;20400;-76
2022/06/18 14:54:10;;;;;;;11.82;1.55;;;;;;;;;;5068871;28;20431;-73
2022/06/18 14:56:57;;;;;;;3.55;1.45;;;;;;;;;;5061243;28;20064;-72
2022/06/18 14:59:48;;;;;;;10.70;1.80;;;;;;;;;;5068647;28;20049;-74
2022/06/18 15:02:31;;;;;;;5.05;1.10;;;;;;;;;;5067714;28;20393;-74
2022/06/18 15:05:01;;;;;;;7.60;1.80;;;;;;;;;;5068394;28;20443;-72
2022/06/18 15:07:34;;;;;;;11.55;1.20;;;;;;;;;;5067745;28;20052;-74
2022/06/18 15:10:19;;;;;;;3.00;1.10;;;;;;;;;;5067955;28;20068;-74
2022/06/18 15:12:52;;;;;;;3.20;1.10;;;;;;;;;;5067516;28;20071;-72
2022/06/18 15:15:52;;;;;;;9.70;2.00;;;;;;;;;;5068311;28;20049;-73
2022/06/18 15:21:46;;;;;;;6.40;1.60;;;;;;;;;;5066486;28;20057;-72
2022/06/18 15:28:21;;;;;;;2.65;0.80;;;;;;;;;;5064793;28;20428;-72
2022/06/18 15:31:17;;;;;;;5.43;1.20;;;;;;;;;;5063009;28;20071;-73
2022/06/18 15:33:50;;;;;;;4.30;1.20;;;;;;;;;;5064297;28;20044;-75
2022/06/18 15:36:31;;;;;;;11.00;1.52;;;;;;;;;;5064787;28;20495;-72
2022/06/18 15:39:26;;;;;;;6.57;1.30;;;;;;;;;;5063557;28;20044;-72
2022/06/18 15:41:56;;;;;;;2.75;1.13;;;;;;;;;;5063713;28;20059;-72
2022/06/18 15:44:30;;;;;;;5.03;1.42;;;;;;;;;;5063873;28;20049;-72
2022/06/18 15:47:03;;;;;;;7.05;1.45;;;;;;;;;;5062212;28;20048;-72
2022/06/18 15:49:39;;;;;;;8.48;1.17;;;;;;;;;;5063499;28;20412;-73
2022/06/18 15:52:27;;;;;;;2.38;1.02;;;;;;;;;;5063510;28;20049;-73
2022/06/18 15:55:05;;;;;;;8.20;1.90;;;;;;;;;;5063843;28;20048;-73
2022/06/18 15:57:36;;;;;;;1.40;0.80;;;;;;;;;;5063521;28;20075;-72
2022/06/18 16:00:22;;;;;;;4.07;1.40;;;;;;;;;;5063396;28;20500;-74
2022/06/18 16:02:53;;;;;;;3.92;1.00;;;;;;;;;;5063526;28;20048;-71
2022/06/18 16:05:32;;;;;;;8.60;1.10;;;;;;;;;;5063950;28;20055;-73
2022/06/18 16:08:08;;;;;;;3.47;1.50;;;;;;;;;;5062774;28;20048;-73
2022/06/18 16:10:41;;;;;;;3.65;1.42;;;;;;;;;;5062419;28;20045;-75
2022/06/18 16:13:23;;;;;;;9.48;1.63;;;;;;;;;;5062731;28;20040;-71